Bennebroek, Netherlands
Current Conditions -  °F | °C
As of 5:55 PM on Thursday 30 Oct 2014 (Local Time) from EHAM Reporting Station
Haze Haze  
Wind Chill: 59°   Ceiling: Unl
Heat Index: 59°   Visibility: 3mi
Dew Point: 57°   Wind: 9mph
Humidity: 94%   Direction: 160°SSE
Pressure: 30.15"   Gusts: NA
Location:  52.32°N, 4.6°E
Report Text: EHAM 301655Z 16008KT 5000 BR NSC 15/14 Q1021 BECMG 4500
Loading
Personal Weather Stations






























Interactive Weather Map
Tropical Storm Tracking
New forecast layout! Learn more

10-Day Weather Forecast

Advertisements
Track Severe Weather on mobile